Time;durP1;ratioP1;P1;durP2;ratioP2;P2;SDS_P1;SDS_P2;PMS_P1;PMS_P2;Temp;Humidity;BMP_temperature;BMP_pressure;BME280_temperature;BME280_humidity;BME280_pressure;Samples;Min_cycle;Max_cycle;Signal;HPM_P1;HPM_P2
2022/09/26 00:01:49;;;;;;;6.40;2.05;;;11.90;99.90;;;;;;5073645;28;20507;-59
2022/09/26 00:04:21;;;;;;;7.53;1.65;;;11.90;99.90;;;;;;5075190;28;20097;-59
2022/09/26 00:06:47;;;;;;;6.97;2.42;;;12.00;99.90;;;;;;5091620;28;20092;-59
2022/09/26 00:09:15;;;;;;;5.65;2.00;;;11.90;99.90;;;;;;5093136;28;20042;-59
2022/09/26 00:11:41;;;;;;;6.50;1.73;;;11.90;99.90;;;;;;5074882;28;20055;-59
2022/09/26 00:14:19;;;;;;;5.65;1.80;;;11.90;99.90;;;;;;5073253;28;20159;-59
2022/09/26 00:16:45;;;;;;;7.40;1.95;;;11.90;99.90;;;;;;5092589;28;20105;-59
2022/09/26 00:19:11;;;;;;;6.05;1.90;;;11.90;99.90;;;;;;5092802;28;20485;-59
2022/09/26 00:21:37;;;;;;;6.00;1.70;;;11.90;99.90;;;;;;5091829;28;20047;-59
2022/09/26 00:24:04;;;;;;;4.10;1.92;;;11.90;99.90;;;;;;5073960;28;20055;-59
2022/09/26 00:26:31;;;;;;;9.82;2.03;;;11.90;99.90;;;;;;5074494;28;20084;-59
2022/09/26 00:28:58;;;;;;;5.18;1.60;;;11.90;99.90;;;;;;5091213;28;20119;-59
2022/09/26 00:31:29;;;;;;;5.97;2.28;;;11.90;99.90;;;;;;5092546;28;20051;-59
2022/09/26 00:33:56;;;;;;;5.95;1.60;;;11.90;99.90;;;;;;5091853;28;20164;-59
2022/09/26 00:36:22;;;;;;;5.18;1.65;;;11.90;99.90;;;;;;5091684;28;20040;-59
2022/09/26 00:38:48;;;;;;;5.97;1.45;;;11.90;99.90;;;;;;5057453;28;20043;-59
2022/09/26 00:41:15;;;;;;;8.18;1.98;;;11.90;99.90;;;;;;5092415;28;20189;-59
2022/09/26 00:43:46;;;;;;;4.32;1.60;;;11.90;99.90;;;;;;5091548;28;20485;-59
2022/09/26 00:46:37;;;;;;;5.28;1.80;;;11.90;99.90;;;;;;5092382;28;20039;-59
2022/09/26 00:49:24;;;;;;;6.03;1.83;;;11.90;99.90;;;;;;5073186;28;20044;-59
2022/09/26 00:51:58;;;;;;;5.93;1.90;;;11.90;99.90;;;;;;5073730;28;20088;-59
2022/09/26 00:54:25;;;;;;;7.35;1.85;;;11.90;99.90;;;;;;5074328;28;20048;-59
2022/09/26 00:56:54;;;;;;;7.18;1.60;;;11.90;99.90;;;;;;5073075;28;20120;-59
2022/09/26 00:59:28;;;;;;;6.00;1.73;;;11.90;99.90;;;;;;5074460;28;20392;-59
2022/09/26 01:01:57;;;;;;;5.55;1.92;;;11.90;99.90;;;;;;5073796;28;20072;-59
2022/09/26 01:04:26;;;;;;;6.18;1.60;;;11.90;99.90;;;;;;5091611;28;20036;-59
2022/09/26 01:06:54;;;;;;;4.50;1.85;;;11.90;99.90;;;;;;5073653;28;20047;-59
2022/09/26 01:09:20;;;;;;;8.10;2.08;;;11.90;99.90;;;;;;5092035;28;20488;-59
2022/09/26 01:11:45;;;;;;;4.88;1.52;;;11.90;99.90;;;;;;5091046;28;20043;-59
2022/09/26 01:14:12;;;;;;;4.95;2.30;;;11.90;99.90;;;;;;5092283;28;20036;-59
2022/09/26 01:16:40;;;;;;;7.35;1.95;;;11.90;99.90;;;;;;5074017;28;20097;-59
2022/09/26 01:19:26;;;;;;;7.95;1.75;;;11.90;99.90;;;;;;5090908;28;20466;-59
2022/09/26 01:21:52;;;;;;;6.35;1.83;;;11.90;99.90;;;;;;5090984;28;20048;-59
2022/09/26 01:24:46;;;;;;;7.43;2.00;;;11.90;99.90;;;;;;5073026;28;20075;-59
2022/09/26 01:27:38;;;;;;;6.35;2.50;;;11.90;99.90;;;;;;5092148;28;20032;-59
2022/09/26 01:30:26;;;;;;;5.22;1.95;;;11.80;99.90;;;;;;5091444;28;20036;-59
2022/09/26 01:33:00;;;;;;;6.05;2.08;;;11.80;99.90;;;;;;5094874;28;20078;-59
2022/09/26 01:35:41;;;;;;;7.72;2.03;;;11.80;99.90;;;;;;5061132;28;20168;-59
2022/09/26 01:38:29;;;;;;;11.40;2.55;;;11.80;99.90;;;;;;5077457;28;20097;-59
2022/09/26 01:41:04;;;;;;;7.63;2.13;;;11.80;99.90;;;;;;5077242;28;20048;-59
2022/09/26 01:43:53;;;;;;;4.35;1.95;;;11.80;99.90;;;;;;5077979;28;20400;-59
2022/09/26 01:46:24;;;;;;;7.97;2.42;;;11.70;99.90;;;;;;5095045;28;20446;-59
2022/09/26 01:49:01;;;;;;;5.35;2.08;;;11.70;99.90;;;;;;5095041;28;20073;-59
2022/09/26 01:51:47;;;;;;;7.15;2.25;;;11.70;99.90;;;;;;5077530;28;20097;-59
2022/09/26 01:54:38;;;;;;;9.30;2.70;;;11.70;99.90;;;;;;5076120;28;20505;-59
2022/09/26 01:57:09;;;;;;;5.97;2.50;;;11.70;99.90;;;;;;5053420;28;20043;-59
2022/09/26 01:59:47;;;;;;;6.45;2.65;;;11.70;99.90;;;;;;5076674;28;20062;-59
2022/09/26 02:02:27;;;;;;;8.32;3.22;;;11.70;99.90;;;;;;5095230;28;20044;-59
2022/09/26 02:04:58;;;;;;;6.47;2.80;;;11.70;99.90;;;;;;5094777;28;20480;-59
2022/09/26 02:07:39;;;;;;;7.25;2.60;;;11.70;99.90;;;;;;5076467;28;20047;-59
2022/09/26 02:10:12;;;;;;;5.25;2.45;;;11.70;99.90;;;;;;5076582;28;20043;-59
2022/09/26 02:12:44;;;;;;;6.65;2.53;;;11.70;99.90;;;;;;5095296;28;20126;-59
2022/09/26 02:15:14;;;;;;;6.53;2.75;;;11.70;99.90;;;;;;5094434;28;20036;-59
2022/09/26 02:17:44;;;;;;;8.20;2.85;;;11.60;99.90;;;;;;5077452;28;20044;-58
2022/09/26 02:20:29;;;;;;;8.23;2.90;;;11.70;99.90;;;;;;5095008;28;20123;-58
2022/09/26 02:22:58;;;;;;;6.53;3.03;;;11.70;99.90;;;;;;5094440;28;20052;-59
2022/09/26 02:25:24;;;;;;;6.32;2.75;;;11.60;99.90;;;;;;5094965;28;20465;-58
2022/09/26 02:27:49;;;;;;;8.55;2.50;;;11.60;99.90;;;;;;5075522;28;20044;-58
2022/09/26 02:30:15;;;;;;;10.52;3.40;;;11.60;99.90;;;;;;5076940;28;20038;-59
2022/09/26 02:32:41;;;;;;;7.15;3.28;;;11.60;99.90;;;;;;5094797;28;20044;-58
2022/09/26 02:37:52;;;;;;;5.60;2.70;;;11.60;99.90;;;;;;5093069;28;20127;-58
2022/09/26 02:40:23;;;;;;;8.20;2.63;;;11.60;99.90;;;;;;5094565;28;20123;-58
2022/09/26 02:42:58;;;;;;;6.25;3.00;;;11.60;99.90;;;;;;5092061;28;20427;-58
2022/09/26 02:45:26;;;;;;;6.00;3.13;;;11.60;99.90;;;;;;5076528;28;20043;-58
2022/09/26 02:48:20;;;;;;;7.03;3.15;;;11.50;99.90;;;;;;5076201;28;20449;-59
2022/09/26 02:51:01;;;;;;;7.47;2.88;;;11.50;99.90;;;;;;5093234;28;20036;-58
2022/09/26 02:54:03;;;;;;;6.25;3.13;;;11.50;99.90;;;;;;5076625;28;20063;-59
2022/09/26 02:57:17;;;;;;;6.43;3.20;;;11.50;99.90;;;;;;5093904;28;20036;-59
2022/09/26 02:59:42;;;;;;;7.05;3.17;;;11.50;99.90;;;;;;5093895;28;20036;-58
2022/09/26 03:02:14;;;;;;;8.70;3.70;;;11.50;99.90;;;;;;5075564;28;20051;-58
2022/09/26 03:05:02;;;;;;;7.93;3.80;;;11.50;99.90;;;;;;5075376;28;20036;-58
2022/09/26 03:07:37;;;;;;;7.88;4.00;;;11.50;99.90;;;;;;5094269;28;20040;-58
2022/09/26 03:10:06;;;;;;;9.05;3.70;;;11.40;99.90;;;;;;5074346;28;20477;-59
2022/09/26 03:12:32;;;;;;;9.98;3.42;;;11.50;99.90;;;;;;5059355;28;20059;-58
2022/09/26 03:15:01;;;;;;;11.05;4.30;;;11.40;99.90;;;;;;5075315;28;20492;-59
2022/09/26 03:17:28;;;;;;;8.93;3.80;;;11.50;99.90;;;;;;5093270;28;20067;-59
2022/09/26 03:20:13;;;;;;;6.63;3.80;;;11.50;99.90;;;;;;5093503;28;20047;-59
2022/09/26 03:22:41;;;;;;;7.50;3.60;;;11.50;99.90;;;;;;5075237;28;20483;-59
2022/09/26 03:25:10;;;;;;;8.23;3.63;;;11.50;99.90;;;;;;5092462;28;20040;-59
2022/09/26 03:27:41;;;;;;;8.02;3.58;;;11.50;99.90;;;;;;5093908;28;20051;-58
2022/09/26 03:30:07;;;;;;;8.13;3.30;;;11.40;99.90;;;;;;5093290;28;20093;-59
2022/09/26 03:32:33;;;;;;;7.32;3.35;;;11.50;99.90;;;;;;5074793;28;20130;-59
2022/09/26 03:34:59;;;;;;;9.55;4.35;;;11.50;99.90;;;;;;5092965;28;20517;-58
2022/09/26 03:37:24;;;;;;;9.57;4.47;;;11.50;99.90;;;;;;5075362;28;20060;-58
2022/09/26 03:39:50;;;;;;;7.65;3.83;;;11.50;99.90;;;;;;5092129;28;20044;-58
2022/09/26 03:42:16;;;;;;;6.95;3.88;;;11.50;99.90;;;;;;5093587;28;20079;-58
2022/09/26 03:44:42;;;;;;;10.20;4.82;;;11.50;99.90;;;;;;5093488;28;20032;-59
2022/09/26 03:47:09;;;;;;;7.78;4.13;;;11.50;99.90;;;;;;5073924;28;20115;-59
2022/09/26 03:49:35;;;;;;;9.60;4.57;;;11.50;99.90;;;;;;5075202;28;20043;-59
2022/09/26 03:52:01;;;;;;;9.85;4.65;;;11.50;99.90;;;;;;5091997;28;20036;-59
2022/09/26 03:54:27;;;;;;;6.85;3.97;;;11.50;99.90;;;;;;5093131;28;20507;-58
2022/09/26 03:56:54;;;;;;;7.60;3.72;;;11.50;99.90;;;;;;5074393;28;20097;-58
2022/09/26 03:59:20;;;;;;;8.20;3.65;;;11.50;99.90;;;;;;5092318;28;20484;-58
2022/09/26 04:01:46;;;;;;;7.45;3.83;;;11.50;99.90;;;;;;5092556;28;20493;-58
2022/09/26 04:04:14;;;;;;;7.10;3.80;;;11.50;99.90;;;;;;5075022;28;20117;-59
2022/09/26 04:06:39;;;;;;;9.93;4.10;;;11.50;99.90;;;;;;5092070;28;20488;-58
2022/09/26 04:09:05;;;;;;;8.98;4.32;;;11.50;99.90;;;;;;5074311;28;20155;-58
2022/09/26 04:11:31;;;;;;;7.80;3.60;;;11.50;99.90;;;;;;5093065;28;20044;-58
2022/09/26 04:13:57;;;;;;;9.77;3.92;;;11.40;99.90;;;;;;5091475;28;20515;-58
2022/09/26 04:16:22;;;;;;;6.55;3.90;;;11.50;99.90;;;;;;5074930;28;20165;-58
2022/09/26 04:18:48;;;;;;;7.57;3.80;;;11.40;99.90;;;;;;5074155;28;20126;-59
2022/09/26 04:21:14;;;;;;;8.02;3.58;;;11.50;99.90;;;;;;5073806;28;20040;-58
2022/09/26 04:23:41;;;;;;;8.43;3.45;;;11.40;99.90;;;;;;5092653;28;20040;-58
2022/09/26 04:26:13;;;;;;;8.18;4.38;;;11.40;99.90;;;;;;5055395;28;20503;-59
2022/09/26 04:28:39;;;;;;;5.78;3.05;;;11.40;99.90;;;;;;5089539;28;20078;-59
2022/09/26 04:31:06;;;;;;;7.10;3.20;;;11.40;99.90;;;;;;5110444;28;20036;-58
2022/09/26 04:33:32;;;;;;;9.27;4.78;;;11.40;99.90;;;;;;5074750;28;20044;-58
2022/09/26 04:36:10;;;;;;;9.45;3.83;;;11.40;99.90;;;;;;5091041;28;20081;-59
2022/09/26 04:38:35;;;;;;;8.73;3.85;;;11.40;99.90;;;;;;5074498;28;20058;-58
2022/09/26 04:41:06;;;;;;;7.45;3.42;;;11.40;99.90;;;;;;5088568;28;20036;-59
2022/09/26 04:43:32;;;;;;;7.32;3.35;;;11.40;99.90;;;;;;5054149;28;20086;-59
2022/09/26 04:45:58;;;;;;;7.22;4.15;;;11.30;99.90;;;;;;5053703;28;20392;-58
2022/09/26 04:48:23;;;;;;;9.00;4.45;;;11.30;99.90;;;;;;5053608;28;20049;-58
2022/09/26 04:50:49;;;;;;;9.27;4.03;;;11.30;99.90;;;;;;5053675;28;20033;-58
2022/09/26 04:53:18;;;;;;;6.88;3.92;;;11.30;99.90;;;;;;5054304;28;20076;-58
2022/09/26 04:55:47;;;;;;;9.05;3.92;;;11.30;99.90;;;;;;5053534;28;20043;-58
2022/09/26 04:58:14;;;;;;;8.68;4.47;;;11.30;99.90;;;;;;5054486;28;20440;-58
2022/09/26 05:00:44;;;;;;;8.02;3.92;;;11.30;99.90;;;;;;5054301;28;20044;-58
2022/09/26 05:03:12;;;;;;;8.13;4.90;;;11.30;99.90;;;;;;5073311;28;20129;-58
2022/09/26 05:05:43;;;;;;;9.15;4.45;;;11.30;99.90;;;;;;5092714;28;20476;-58
2022/09/26 05:08:10;;;;;;;8.88;4.50;;;11.30;99.90;;;;;;5061272;28;20089;-58
2022/09/26 05:10:37;;;;;;;9.38;4.90;;;11.30;99.90;;;;;;5077553;28;20077;-58
2022/09/26 05:13:03;;;;;;;9.43;4.57;;;11.20;99.90;;;;;;5077596;28;20050;-58
2022/09/26 05:15:29;;;;;;;9.25;4.43;;;11.20;99.90;;;;;;5078008;28;20081;-58
2022/09/26 05:17:59;;;;;;;6.88;4.50;;;11.20;99.90;;;;;;5077067;28;20460;-58
2022/09/26 05:20:30;;;;;;;10.68;4.88;;;11.20;99.90;;;;;;5061279;28;20040;-58
2022/09/26 05:23:00;;;;;;;13.38;5.68;;;11.20;99.90;;;;;;5077180;28;20056;-58
2022/09/26 05:28:13;;;;;;;9.55;4.75;;;11.20;99.90;;;;;;5074564;28;20048;-58
2022/09/26 05:30:39;;;;;;;9.10;4.38;;;11.20;99.90;;;;;;5075062;28;20094;-58
2022/09/26 05:33:06;;;;;;;7.30;4.47;;;11.20;99.90;;;;;;5075065;28;20398;-58
2022/09/26 05:35:35;;;;;;;10.80;5.30;;;11.20;99.90;;;;;;5057955;28;20045;-59
2022/09/26 05:38:02;;;;;;;8.73;4.40;;;11.20;99.90;;;;;;5074098;28;20067;-58
2022/09/26 05:43:13;;;;;;;;;;;11.20;99.90;;;;;;5075960;28;20040;-58
2022/09/26 05:45:39;;;;;;;9.45;5.35;;;11.20;99.90;;;;;;5073404;28;19916;-58
2022/09/26 05:48:05;;;;;;;8.88;5.32;;;11.10;99.90;;;;;;5074632;28;20044;-58
2022/09/26 05:50:32;;;;;;;7.68;5.38;;;11.10;99.90;;;;;;5094388;28;20036;-59
2022/09/26 05:53:01;;;;;;;9.35;5.03;;;11.10;99.90;;;;;;5094470;28;20047;-58
2022/09/26 05:55:28;;;;;;;8.38;5.10;;;11.20;99.90;;;;;;5095716;28;20135;-58
2022/09/26 05:57:57;;;;;;;9.48;4.78;;;11.20;99.90;;;;;;5095060;28;20040;-58
2022/09/26 06:00:26;;;;;;;10.82;5.80;;;11.20;99.90;;;;;;5076668;28;20051;-58
2022/09/26 06:03:01;;;;;;;7.97;4.22;;;11.20;99.90;;;;;;5072743;28;20041;-59
2022/09/26 06:05:27;;;;;;;8.15;4.63;;;11.20;99.90;;;;;;5073294;28;20515;-58
2022/09/26 06:07:53;;;;;;;12.55;5.85;;;11.20;99.90;;;;;;5093143;28;20068;-58
2022/09/26 06:10:20;;;;;;;8.85;5.38;;;11.20;99.90;;;;;;5095397;28;20473;-58
2022/09/26 06:12:45;;;;;;;10.98;4.97;;;11.20;99.90;;;;;;5076769;28;20628;-58
2022/09/26 06:15:11;;;;;;;8.27;4.32;;;11.20;99.90;;;;;;5087010;28;20040;-58
2022/09/26 06:17:37;;;;;;;12.05;4.90;;;11.20;99.90;;;;;;5059898;28;20485;-58
2022/09/26 06:20:04;;;;;;;8.30;5.30;;;11.20;99.90;;;;;;5070876;28;20086;-58
2022/09/26 06:22:32;;;;;;;8.88;4.45;;;11.20;99.90;;;;;;5053338;28;20048;-58
2022/09/26 06:24:58;;;;;;;8.23;4.18;;;11.20;99.90;;;;;;5037027;28;20068;-58
2022/09/26 06:27:24;;;;;;;6.90;3.83;;;11.20;99.90;;;;;;5088145;28;20046;-58
2022/09/26 06:29:50;;;;;;;10.82;4.68;;;11.20;99.90;;;;;;5057245;28;20040;-58
2022/09/26 06:32:16;;;;;;;6.45;3.75;;;11.20;99.90;;;;;;5087555;28;20100;-58
2022/09/26 06:34:42;;;;;;;5.82;3.72;;;11.20;99.90;;;;;;5049097;28;20125;-58
2022/09/26 06:37:07;;;;;;;9.30;4.40;;;11.20;99.90;;;;;;5069777;28;20052;-59
2022/09/26 06:39:36;;;;;;;7.18;3.85;;;11.20;99.90;;;;;;5073896;28;20052;-58
2022/09/26 06:42:06;;;;;;;7.72;3.75;;;11.20;99.90;;;;;;5089794;28;20516;-58
2022/09/26 06:44:32;;;;;;;7.13;3.38;;;11.20;99.90;;;;;;5092189;28;20044;-58
2022/09/26 06:47:01;;;;;;;8.05;3.97;;;11.20;99.90;;;;;;5090215;28;20416;-58
2022/09/26 06:49:27;;;;;;;8.32;4.18;;;11.20;99.90;;;;;;5080957;28;20053;-58
2022/09/26 06:51:53;;;;;;;6.63;3.47;;;11.20;99.90;;;;;;5091304;28;20040;-58
2022/09/26 06:54:19;;;;;;;8.10;3.60;;;11.20;99.90;;;;;;5091853;28;20047;-58
2022/09/26 06:56:45;;;;;;;6.82;3.63;;;11.20;99.90;;;;;;5090456;28;20047;-58
2022/09/26 06:59:11;;;;;;;8.85;4.47;;;11.20;99.90;;;;;;5091659;28;20096;-58
2022/09/26 07:01:36;;;;;;;7.82;4.30;;;11.20;99.90;;;;;;5073305;28;20135;-58
2022/09/26 07:04:03;;;;;;;6.53;3.80;;;11.20;99.90;;;;;;5086502;28;20174;-58
2022/09/26 07:06:29;;;;;;;7.25;4.07;;;11.20;99.90;;;;;;5071299;28;20047;-58
2022/09/26 07:08:55;;;;;;;7.63;3.50;;;11.20;99.90;;;;;;5052681;28;20370;-58
2022/09/26 07:11:21;;;;;;;8.20;4.15;;;11.20;99.90;;;;;;5053937;28;20048;-58
2022/09/26 07:13:47;;;;;;;9.05;4.00;;;11.20;99.90;;;;;;5087796;28;20051;-58
2022/09/26 07:16:13;;;;;;;7.45;3.97;;;11.20;99.90;;;;;;5046485;28;20040;-58
2022/09/26 07:18:38;;;;;;;7.63;3.28;;;11.20;99.90;;;;;;5071250;28;20032;-58
2022/09/26 07:21:05;;;;;;;11.48;4.65;;;11.30;99.90;;;;;;5092876;28;20047;-58
2022/09/26 07:23:31;;;;;;;6.88;3.00;;;11.30;99.90;;;;;;5090294;28;20048;-58
2022/09/26 07:25:57;;;;;;;8.05;4.63;;;11.30;99.90;;;;;;5090633;28;20050;-58
2022/09/26 07:28:24;;;;;;;8.07;3.83;;;11.30;99.90;;;;;;5068071;28;20051;-58
2022/09/26 07:30:53;;;;;;;8.52;4.93;;;11.40;99.90;;;;;;5089055;28;20564;-58
2022/09/26 07:33:19;;;;;;;6.93;3.53;;;11.40;99.90;;;;;;5072990;28;20140;-58
2022/09/26 07:35:46;;;;;;;6.95;3.47;;;11.40;99.90;;;;;;5071697;28;20493;-58
2022/09/26 07:38:12;;;;;;;7.85;3.63;;;11.40;99.90;;;;;;5089720;28;20047;-58
2022/09/26 07:40:39;;;;;;;6.88;3.45;;;11.40;99.90;;;;;;5054090;28;20041;-58
2022/09/26 07:43:05;;;;;;;7.78;3.22;;;11.40;99.90;;;;;;5084354;28;20454;-58
2022/09/26 07:51:00;;;;;;;6.67;3.33;;;11.50;99.90;;;;;;5071102;28;20044;-58
2022/09/26 07:53:27;;;;;;;6.25;2.88;;;11.50;99.90;;;;;;5084746;28;20107;-58
2022/09/26 07:56:05;;;;;;;9.23;3.83;;;11.60;99.90;;;;;;5098829;28;20032;-58
2022/09/26 07:58:40;;;;;;;6.97;3.53;;;11.60;99.90;;;;;;5083474;28;20480;-58
2022/09/26 08:01:12;;;;;;;8.38;3.65;;;11.70;99.90;;;;;;5110448;28;20400;-58
2022/09/26 08:03:42;;;;;;;6.45;3.00;;;11.80;99.90;;;;;;5088446;28;20052;-58
2022/09/26 08:06:08;;;;;;;6.53;2.95;;;11.80;99.90;;;;;;5084978;28;20468;-58
2022/09/26 08:08:35;;;;;;;6.28;2.72;;;11.80;99.90;;;;;;5066793;28;20076;-58
2022/09/26 08:11:01;;;;;;;6.95;2.88;;;11.80;99.90;;;;;;5057621;28;20123;-58
2022/09/26 08:13:29;;;;;;;9.63;3.13;;;11.90;99.90;;;;;;5085975;28;20047;-58
2022/09/26 08:16:00;;;;;;;7.05;2.80;;;11.90;99.90;;;;;;5071444;28;20055;-58
2022/09/26 08:18:26;;;;;;;5.80;3.35;;;11.90;99.90;;;;;;5070165;28;20063;-59
2022/09/26 08:20:51;;;;;;;8.15;3.00;;;11.90;99.90;;;;;;5052583;28;20484;-59
2022/09/26 08:23:17;;;;;;;8.05;3.10;;;11.90;99.90;;;;;;5085209;28;20397;-59
2022/09/26 08:25:43;;;;;;;11.23;2.97;;;11.90;99.90;;;;;;5072169;28;20036;-59
2022/09/26 08:28:12;;;;;;;7.35;2.83;;;11.90;99.90;;;;;;5070351;28;20101;-59
2022/09/26 08:30:43;;;;;;;7.03;3.47;;;12.00;99.90;;;;;;5076312;28;20041;-59
2022/09/26 08:33:11;;;;;;;7.30;3.03;;;12.00;99.90;;;;;;5089821;28;20039;-59
2022/09/26 08:35:37;;;;;;;8.23;2.83;;;12.00;99.90;;;;;;5074873;28;20047;-59
2022/09/26 08:38:05;;;;;;;8.90;3.28;;;12.10;99.90;;;;;;5092277;28;20492;-59
2022/09/26 08:40:56;;;;;;;7.28;2.67;;;12.10;99.90;;;;;;5058265;28;20055;-59
2022/09/26 08:43:24;;;;;;;8.05;2.65;;;12.20;99.90;;;;;;5047031;28;20472;-59
2022/09/26 08:49:12;;;;;;;7.13;3.10;;;12.20;99.90;;;;;;5105807;28;20093;-59
2022/09/26 08:51:42;;;;;;;8.93;3.28;;;12.20;99.90;;;;;;5074444;28;20040;-59
2022/09/26 08:54:16;;;;;;;5.57;3.08;;;12.20;99.90;;;;;;5092486;28;20377;-59
2022/09/26 08:56:59;;;;;;;7.00;3.60;;;12.20;99.90;;;;;;5074159;28;20115;-59
2022/09/26 08:59:39;;;;;;;7.70;3.20;;;12.20;99.90;;;;;;5074529;28;20354;-60
2022/09/26 09:02:22;;;;;;;7.45;2.90;;;12.20;99.90;;;;;;5040730;28;20052;-60
2022/09/26 09:05:18;;;;;;;8.07;2.90;;;12.30;99.90;;;;;;5071857;28;20123;-60
2022/09/26 09:07:48;;;;;;;;;;;12.30;99.90;;;;;;5071580;28;20163;-60
2022/09/26 09:10:17;;;;;;;8.57;3.83;;;12.20;99.90;;;;;;5071339;28;19967;-60
2022/09/26 09:13:09;;;;;;;7.53;3.00;;;12.30;99.90;;;;;;5072786;28;20040;-60
2022/09/26 09:16:04;;;;;;;9.52;3.78;;;12.30;99.90;;;;;;5073698;28;20481;-60
2022/09/26 09:19:01;;;;;;;7.88;3.50;;;12.20;99.90;;;;;;5054195;28;20047;-60
2022/09/26 09:21:39;;;;;;;10.18;4.03;;;12.10;99.90;;;;;;5070108;28;20041;-60
2022/09/26 09:24:31;;;;;;;9.52;4.20;;;12.10;99.90;;;;;;5054503;28;20052;-60
2022/09/26 09:27:02;;;;;;;11.57;3.88;;;12.10;99.90;;;;;;5073686;28;20048;-63
2022/09/26 09:29:50;;;;;;;12.35;4.40;;;12.00;99.90;;;;;;5073061;28;20055;-60
2022/09/26 09:32:20;;;;;;;8.30;3.50;;;12.00;99.90;;;;;;5073677;28;20062;-60
2022/09/26 09:34:48;;;;;;;9.70;4.45;;;11.90;99.90;;;;;;5073897;28;20062;-60
2022/09/26 09:37:24;;;;;;;7.97;4.00;;;11.90;99.90;;;;;;5072998;28;20040;-60
2022/09/26 09:39:50;;;;;;;10.68;4.43;;;11.90;99.90;;;;;;5070499;28;20036;-60
2022/09/26 09:42:42;;;;;;;9.80;4.55;;;11.90;99.90;;;;;;5070484;28;20124;-60
2022/09/26 09:45:22;;;;;;;8.35;4.78;;;11.90;99.90;;;;;;5063465;28;20055;-60
2022/09/26 09:47:48;;;;;;;9.82;4.20;;;12.00;99.90;;;;;;5053917;28;20041;-60
2022/09/26 09:50:29;;;;;;;8.20;3.92;;;12.00;99.90;;;;;;5057022;28;20547;-60
2022/09/26 09:53:27;;;;;;;9.65;4.10;;;12.10;99.90;;;;;;5094149;28;20112;-60
2022/09/26 09:56:06;;;;;;;11.00;4.85;;;12.10;99.90;;;;;;5087607;28;20043;-60
2022/09/26 09:58:57;;;;;;;7.60;4.55;;;12.20;99.90;;;;;;5094841;28;20040;-60
2022/09/26 10:01:30;;;;;;;9.15;5.30;;;12.20;99.90;;;;;;5081355;28;20113;-60
2022/09/26 10:04:29;;;;;;;7.65;4.32;;;12.10;99.90;;;;;;5075954;28;20481;-60
2022/09/26 10:06:55;;;;;;;8.63;4.53;;;12.10;99.90;;;;;;5057714;28;20040;-60
2022/09/26 10:09:29;;;;;;;8.35;5.05;;;12.10;99.90;;;;;;5056704;28;20086;-60
2022/09/26 10:11:55;;;;;;;8.88;4.00;;;12.10;99.90;;;;;;5094043;28;20135;-60
2022/09/26 10:14:40;;;;;;;11.65;4.70;;;12.10;99.90;;;;;;5072627;28;20493;-60
2022/09/26 10:17:08;;;;;;;8.90;4.72;;;12.10;99.90;;;;;;5064129;28;20044;-60
2022/09/26 10:19:37;;;;;;;7.55;4.43;;;12.10;99.90;;;;;;5058127;28;20047;-60
2022/09/26 10:22:08;;;;;;;8.23;4.65;;;12.00;99.90;;;;;;5066311;28;20123;-60
2022/09/26 10:24:42;;;;;;;8.77;4.85;;;12.00;99.90;;;;;;5077764;28;20101;-60
2022/09/26 10:27:37;;;;;;;6.82;4.70;;;12.00;99.90;;;;;;5056101;28;20078;-60
2022/09/26 10:30:25;;;;;;;10.18;5.38;;;11.90;99.90;;;;;;5057000;28;20447;-60
2022/09/26 10:32:54;;;;;;;7.43;4.60;;;11.90;99.90;;;;;;5075043;28;20060;-60
2022/09/26 10:35:24;;;;;;;10.35;4.97;;;11.80;99.90;;;;;;5076497;28;20035;-60
2022/09/26 10:38:07;;;;;;;9.10;5.10;;;11.80;99.90;;;;;;5076204;28;20105;-60
2022/09/26 10:40:46;;;;;;;7.45;5.32;;;11.80;99.90;;;;;;5038933;28;20048;-60
2022/09/26 10:43:32;;;;;;;6.93;4.88;;;11.80;99.90;;;;;;5078175;28;20036;-60
2022/09/26 10:46:11;;;;;;;9.88;5.25;;;11.80;99.90;;;;;;5096630;28;20401;-60
2022/09/26 10:48:47;;;;;;;8.13;5.05;;;11.80;99.90;;;;;;5078238;28;20040;-60
2022/09/26 10:51:36;;;;;;;9.43;4.82;;;11.70;99.90;;;;;;5082565;28;20024;-60
2022/09/26 10:54:17;;;;;;;14.25;6.07;;;11.80;99.90;;;;;;5084480;28;20036;-60
2022/09/26 10:56:49;;;;;;;7.75;5.35;;;11.80;99.90;;;;;;5075946;28;20054;-59
2022/09/26 10:59:18;;;;;;;10.23;6.03;;;11.80;99.90;;;;;;5075996;28;20044;-60
2022/09/26 11:01:54;;;;;;;8.13;5.57;;;11.80;99.90;;;;;;5089890;28;20054;-60
2022/09/26 11:07:09;;;;;;;8.63;6.32;;;11.90;99.90;;;;;;5071884;28;20044;-59
2022/09/26 11:09:37;;;;;;;8.05;6.30;;;11.90;99.90;;;;;;5072678;28;20520;-59
2022/09/26 11:12:25;;;;;;;8.52;5.75;;;12.00;99.90;;;;;;5073716;28;20032;-59
2022/09/26 11:15:12;;;;;;;9.38;5.63;;;12.00;99.90;;;;;;5078452;28;20099;-59
2022/09/26 11:17:47;;;;;;;7.88;5.30;;;12.00;99.90;;;;;;5070372;28;20036;-59
2022/09/26 11:20:41;;;;;;;8.45;6.30;;;12.10;99.90;;;;;;5078647;28;20041;-59
2022/09/26 11:23:21;;;;;;;11.55;6.40;;;12.20;99.90;;;;;;5072714;28;20067;-59
2022/09/26 11:26:09;;;;;;;8.30;5.60;;;12.20;99.90;;;;;;5074968;28;20044;-59
2022/09/26 11:28:43;;;;;;;8.52;5.13;;;12.20;99.90;;;;;;5091788;28;20070;-59
2022/09/26 11:31:39;;;;;;;6.63;5.18;;;12.20;99.90;;;;;;5081142;28;20488;-59
2022/09/26 11:34:15;;;;;;;6.45;4.80;;;12.20;99.90;;;;;;5070258;28;20102;-59
2022/09/26 11:36:53;;;;;;;7.18;5.20;;;12.20;99.90;;;;;;5055753;28;20048;-59
2022/09/26 11:39:25;;;;;;;6.85;4.80;;;12.10;99.90;;;;;;5088297;28;20077;-59
2022/09/26 11:42:20;;;;;;;7.75;5.10;;;12.10;99.90;;;;;;5089126;28;20079;-59
2022/09/26 11:44:57;;;;;;;9.30;5.22;;;12.10;99.90;;;;;;5036997;28;20460;-59
2022/09/26 11:48:02;;;;;;;9.30;5.38;;;12.20;99.90;;;;;;5069726;28;20448;-59
2022/09/26 11:50:39;;;;;;;7.90;5.30;;;12.20;99.90;;;;;;5069181;28;20040;-59
2022/09/26 11:53:04;;;;;;;7.97;5.60;;;12.20;99.90;;;;;;5080186;28;20582;-58
2022/09/26 11:55:38;;;;;;;7.80;5.15;;;12.30;99.90;;;;;;5051809;28;20053;-59
2022/09/26 11:58:21;;;;;;;8.05;5.38;;;12.30;99.90;;;;;;5073859;28;20637;-59
2022/09/26 12:01:06;;;;;;;7.80;4.97;;;12.30;99.90;;;;;;5057255;28;20583;-58
2022/09/26 12:03:38;;;;;;;;;;;12.30;99.90;;;;;;5072983;28;20048;-59
2022/09/26 12:06:33;;;;;;;7.43;5.43;;;12.30;99.90;;;;;;5083635;28;19916;-59
2022/09/26 12:08:59;;;;;;;7.82;5.78;;;12.30;99.90;;;;;;5075394;28;20376;-59
2022/09/26 12:12:02;;;;;;;10.35;5.75;;;12.40;99.90;;;;;;5073899;28;20047;-59
2022/09/26 12:14:38;;;;;;;9.95;6.30;;;12.40;99.90;;;;;;5091032;28;20040;-59
2022/09/26 12:17:24;;;;;;;7.50;6.07;;;12.40;99.90;;;;;;5058773;28;20071;-59
2022/09/26 12:20:05;;;;;;;8.77;5.72;;;12.50;99.90;;;;;;5070547;28;20029;-59
2022/09/26 12:22:37;;;;;;;7.03;5.70;;;12.50;99.90;;;;;;5079234;28;20419;-60
2022/09/26 12:25:06;;;;;;;9.88;6.20;;;12.50;99.90;;;;;;5092821;28;20370;-59
2022/09/26 12:27:42;;;;;;;7.88;6.07;;;12.50;99.90;;;;;;5073870;28;20039;-59
2022/09/26 12:30:20;;;;;;;8.50;6.53;;;12.60;99.90;;;;;;5087314;28;21401;-59
2022/09/26 12:33:07;;;;;;;9.63;6.53;;;12.70;99.90;;;;;;5064864;28;20051;-59
2022/09/26 12:36:03;;;;;;;8.75;5.90;;;12.80;99.90;;;;;;5079981;28;20048;-59
2022/09/26 12:38:50;;;;;;;9.40;5.95;;;12.90;99.90;;;;;;5082409;28;20127;-59
2022/09/26 12:41:22;;;;;;;8.43;5.72;;;13.00;99.90;;;;;;5052162;28;20044;-59
2022/09/26 12:43:59;;;;;;;8.43;5.55;;;12.90;99.90;;;;;;5080796;28;20052;-60
2022/09/26 12:46:44;;;;;;;8.68;5.28;;;13.00;99.90;;;;;;5054042;28;20088;-59
2022/09/26 12:49:26;;;;;;;7.97;5.37;;;13.00;99.90;;;;;;5090143;28;20047;-59
2022/09/26 12:51:57;;;;;;;11.73;6.78;;;12.90;99.90;;;;;;5072131;28;20512;-59
2022/09/26 12:54:43;;;;;;;9.95;5.70;;;12.80;99.90;;;;;;5071635;28;20401;-59
2022/09/26 12:57:29;;;;;;;8.10;5.38;;;12.80;99.90;;;;;;5067550;28;20396;-59
2022/09/26 13:00:10;;;;;;;8.32;5.60;;;12.80;99.90;;;;;;5067109;28;20139;-59
2022/09/26 13:02:42;;;;;;;7.65;5.15;;;12.90;99.90;;;;;;5052723;28;20111;-59
2022/09/26 13:05:14;;;;;;;7.78;5.78;;;12.90;99.90;;;;;;5089673;28;20396;-59
2022/09/26 13:08:01;;;;;;;7.80;5.05;;;13.00;99.90;;;;;;5092630;28;20040;-59
2022/09/26 13:10:49;;;;;;;7.30;5.47;;;13.10;99.90;;;;;;5053800;28;20359;-59
2022/09/26 13:13:27;;;;;;;8.27;5.53;;;13.20;99.90;;;;;;5071701;28;20505;-59
2022/09/26 13:16:13;;;;;;;8.85;5.80;;;13.30;99.90;;;;;;5073022;28;20119;-58
2022/09/26 13:18:50;;;;;;;;;;;13.50;99.90;;;;;;5057250;28;20051;-59
2022/09/26 13:21:40;;;;;;;9.02;5.95;;;13.80;99.90;;;;;;5091215;28;19916;-59
2022/09/26 13:24:17;;;;;;;10.30;6.05;;;13.90;99.90;;;;;;5086773;28;20041;-59
2022/09/26 13:26:52;;;;;;;7.95;5.38;;;14.00;99.90;;;;;;5103205;28;20173;-59
2022/09/26 13:29:25;;;;;;;7.00;4.10;;;14.10;99.90;;;;;;5096012;28;20074;-59
2022/09/26 13:31:57;;;;;;;7.13;3.83;;;14.10;99.90;;;;;;5093119;28;20488;-59
2022/09/26 13:34:33;;;;;;;7.20;3.17;;;14.10;99.90;;;;;;5095646;28;20036;-59
2022/09/26 13:37:01;;;;;;;6.85;2.33;;;14.20;99.90;;;;;;5059991;28;20040;-59
2022/09/26 13:39:45;;;;;;;6.88;2.20;;;14.30;99.90;;;;;;5077045;28;20071;-59